sensor_id;sensor_type;location;lat;lon;timestamp;pressure;altitude;pressure_sealevel;temperature;humidity
21433;BME280;18592;49.708;10.900;2023-03-21T00:02:05;98851.56;;;13.55;50.56
21433;BME280;18592;49.708;10.900;2023-03-21T00:04:07;98850.75;;;13.54;50.59
21433;BME280;18592;49.708;10.900;2023-03-21T00:06:16;98853.47;;;13.54;50.46
21433;BME280;18592;49.708;10.900;2023-03-21T00:08:19;98847.16;;;13.54;50.56
21433;BME280;18592;49.708;10.900;2023-03-21T00:10:21;98851.84;;;13.53;50.63
21433;BME280;18592;49.708;10.900;2023-03-21T00:12:40;98847.44;;;13.52;50.59
21433;BME280;18592;49.708;10.900;2023-03-21T00:14:43;98857.56;;;13.52;50.61
21433;BME280;18592;49.708;10.900;2023-03-21T00:16:46;98855.94;;;13.51;50.57
21433;BME280;18592;49.708;10.900;2023-03-21T00:18:52;98851.53;;;13.50;50.52
21433;BME280;18592;49.708;10.900;2023-03-21T00:20:58;98847.97;;;13.49;50.56
21433;BME280;18592;49.708;10.900;2023-03-21T00:23:24;98849.31;;;13.47;50.51
21433;BME280;18592;49.708;10.900;2023-03-21T00:25:26;98845.75;;;13.46;50.37
21433;BME280;18592;49.708;10.900;2023-03-21T00:27:28;98841.09;;;13.47;50.57
21433;BME280;18592;49.708;10.900;2023-03-21T00:29:49;98838.88;;;13.44;50.46
21433;BME280;18592;49.708;10.900;2023-03-21T00:31:54;98834.25;;;13.44;50.65
21433;BME280;18592;49.708;10.900;2023-03-21T00:33:58;98837.81;;;13.45;50.66
21433;BME280;18592;49.708;10.900;2023-03-21T00:36:00;98838.09;;;13.43;50.59
21433;BME280;18592;49.708;10.900;2023-03-21T00:38:09;98845.47;;;13.43;50.58
21433;BME280;18592;49.708;10.900;2023-03-21T00:40:12;98841.06;;;13.42;50.38
21433;BME280;18592;49.708;10.900;2023-03-21T00:42:26;98829.56;;;13.40;50.52
21433;BME280;18592;49.708;10.900;2023-03-21T00:44:30;98833.38;;;13.38;50.64
21433;BME280;18592;49.708;10.900;2023-03-21T00:46:37;98831.75;;;13.38;50.59
21433;BME280;18592;49.708;10.900;2023-03-21T00:48:59;98818.56;;;13.34;50.54
21433;BME280;18592;49.708;10.900;2023-03-21T00:51:01;98811.19;;;13.35;50.71
21433;BME280;18592;49.708;10.900;2023-03-21T00:53:02;98815.28;;;13.32;50.61
21433;BME280;18592;49.708;10.900;2023-03-21T00:55:04;98817.19;;;13.32;50.48
21433;BME280;18592;49.708;10.900;2023-03-21T00:57:08;98812.78;;;13.31;50.95
21433;BME280;18592;49.708;10.900;2023-03-21T00:59:10;98813.88;;;13.30;50.51
21433;BME280;18592;49.708;10.900;2023-03-21T01:01:12;98805.91;;;13.28;50.61
21433;BME280;18592;49.708;10.900;2023-03-21T01:03:14;98808.66;;;13.28;50.53
21433;BME280;18592;49.708;10.900;2023-03-21T01:05:28;98813.56;;;13.26;50.63
21433;BME280;18592;49.708;10.900;2023-03-21T01:07:49;98800.41;;;13.23;50.53
21433;BME280;18592;49.708;10.900;2023-03-21T01:09:53;98805.06;;;13.23;50.47
21433;BME280;18592;49.708;10.900;2023-03-21T01:11:57;98806.44;;;13.20;50.32
21433;BME280;18592;49.708;10.900;2023-03-21T01:13:59;98799.56;;;13.18;50.48
21433;BME280;18592;49.708;10.900;2023-03-21T01:16:21;98799.81;;;13.16;50.50
21433;BME280;18592;49.708;10.900;2023-03-21T01:18:28;98795.69;;;13.14;50.29
21433;BME280;18592;49.708;10.900;2023-03-21T01:20:32;98803.34;;;13.12;50.46
21433;BME280;18592;49.708;10.900;2023-03-21T01:22:33;98806.34;;;13.10;50.42
21433;BME280;18592;49.708;10.900;2023-03-21T01:24:38;98802.22;;;13.08;50.37
21433;BME280;18592;49.708;10.900;2023-03-21T01:26:52;98807.34;;;13.04;50.35
21433;BME280;18592;49.708;10.900;2023-03-21T01:29:03;98809.53;;;13.02;50.49
21433;BME280;18592;49.708;10.900;2023-03-21T01:31:05;98807.03;;;13.01;50.34
21433;BME280;18592;49.708;10.900;2023-03-21T01:33:07;98806.47;;;12.99;50.41
21433;BME280;18592;49.708;10.900;2023-03-21T01:35:09;98807.81;;;12.96;50.60
21433;BME280;18592;49.708;10.900;2023-03-21T01:37:12;98807.25;;;12.94;50.55
21433;BME280;18592;49.708;10.900;2023-03-21T01:39:21;98796.81;;;12.91;50.47
21433;BME280;18592;49.708;10.900;2023-03-21T01:41:28;98796.25;;;12.89;50.39
21433;BME280;18592;49.708;10.900;2023-03-21T01:43:50;98794.31;;;12.85;50.19
21433;BME280;18592;49.708;10.900;2023-03-21T01:48:22;98792.59;;;12.79;50.50
21433;BME280;18592;49.708;10.900;2023-03-21T01:50:30;98786.81;;;12.75;50.43
21433;BME280;18592;49.708;10.900;2023-03-21T01:52:38;98783.53;;;12.73;50.48
21433;BME280;18592;49.708;10.900;2023-03-21T01:54:54;98788.69;;;12.69;50.55
21433;BME280;18592;49.708;10.900;2023-03-21T01:56:57;98779.91;;;12.67;50.38
21433;BME280;18592;49.708;10.900;2023-03-21T01:59:37;98779.63;;;12.64;50.58
21433;BME280;18592;49.708;10.900;2023-03-21T02:01:43;98783.94;;;12.60;50.46
21433;BME280;18592;49.708;10.900;2023-03-21T02:03:46;98779.56;;;12.59;50.69
21433;BME280;18592;49.708;10.900;2023-03-21T02:06:04;98771.03;;;12.55;50.60
21433;BME280;18592;49.708;10.900;2023-03-21T02:08:12;98780.03;;;12.51;50.56
21433;BME280;18592;49.708;10.900;2023-03-21T02:10:15;98776.16;;;12.47;50.61
21433;BME280;18592;49.708;10.900;2023-03-21T02:12:22;98765.47;;;12.45;50.58
21433;BME280;18592;49.708;10.900;2023-03-21T02:14:24;98769.00;;;12.41;50.75
21433;BME280;18592;49.708;10.900;2023-03-21T02:19:23;98768.38;;;12.34;50.90
21433;BME280;18592;49.708;10.900;2023-03-21T02:27:15;98765.03;;;12.27;50.90
21433;BME280;18592;49.708;10.900;2023-03-21T02:29:46;98760.91;;;12.24;50.77
21433;BME280;18592;49.708;10.900;2023-03-21T02:34:44;98767.44;;;12.23;50.79
21433;BME280;18592;49.708;10.900;2023-03-21T02:39:17;98767.94;;;12.20;50.91
21433;BME280;18592;49.708;10.900;2023-03-21T02:46:27;98770.88;;;12.14;50.96
21433;BME280;18592;49.708;10.900;2023-03-21T02:51:20;98769.72;;;12.09;51.09
21433;BME280;18592;49.708;10.900;2023-03-21T02:53:27;98770.81;;;12.08;51.09
21433;BME280;18592;49.708;10.900;2023-03-21T02:55:39;98762.84;;;12.07;50.96
21433;BME280;18592;49.708;10.900;2023-03-21T02:57:43;98773.00;;;12.06;50.94
21433;BME280;18592;49.708;10.900;2023-03-21T02:59:49;98768.31;;;12.07;51.08
21433;BME280;18592;49.708;10.900;2023-03-21T03:02:07;98770.00;;;12.08;51.12
21433;BME280;18592;49.708;10.900;2023-03-21T03:04:19;98777.13;;;12.09;51.08
21433;BME280;18592;49.708;10.900;2023-03-21T03:06:29;98768.09;;;12.08;51.08
21433;BME280;18592;49.708;10.900;2023-03-21T03:08:47;98760.72;;;12.09;50.87
21433;BME280;18592;49.708;10.900;2023-03-21T03:11:23;98764.78;;;12.06;50.92
21433;BME280;18592;49.708;10.900;2023-03-21T03:18:53;98774.06;;;12.05;50.97
21433;BME280;18592;49.708;10.900;2023-03-21T03:25:26;98771.31;;;12.05;50.90
21433;BME280;18592;49.708;10.900;2023-03-21T03:27:43;98770.75;;;12.03;51.12
21433;BME280;18592;49.708;10.900;2023-03-21T03:29:47;98769.66;;;12.04;50.97
21433;BME280;18592;49.708;10.900;2023-03-21T03:32:01;98773.22;;;12.05;51.07
21433;BME280;18592;49.708;10.900;2023-03-21T03:34:10;98768.59;;;12.05;51.08
21433;BME280;18592;49.708;10.900;2023-03-21T03:36:17;98768.88;;;12.04;51.10
21433;BME280;18592;49.708;10.900;2023-03-21T03:38:37;98765.28;;;12.03;51.03
21433;BME280;18592;49.708;10.900;2023-03-21T03:40:49;98760.66;;;12.04;51.02
21433;BME280;18592;49.708;10.900;2023-03-21T03:43:12;98759.00;;;12.03;51.13
21433;BME280;18592;49.708;10.900;2023-03-21T03:45:28;98760.66;;;12.04;51.11
21433;BME280;18592;49.708;10.900;2023-03-21T03:47:46;98757.09;;;12.03;51.15
21433;BME280;18592;49.708;10.900;2023-03-21T03:50:28;98755.44;;;12.02;51.15
21433;BME280;18592;49.708;10.900;2023-03-21T03:52:54;98754.38;;;12.03;51.16
21433;BME280;18592;49.708;10.900;2023-03-21T03:55:13;98759.00;;;12.03;51.12
21433;BME280;18592;49.708;10.900;2023-03-21T03:57:24;98748.06;;;12.03;50.91
21433;BME280;18592;49.708;10.900;2023-03-21T03:59:29;98748.91;;;12.03;51.01
21433;BME280;18592;49.708;10.900;2023-03-21T04:01:50;98756.25;;;12.03;51.01
21433;BME280;18592;49.708;10.900;2023-03-21T04:03:55;98749.97;;;12.02;51.09
21433;BME280;18592;49.708;10.900;2023-03-21T04:06:14;98746.41;;;12.02;51.24
21433;BME280;18592;49.708;10.900;2023-03-21T04:08:17;98742.59;;;12.03;51.11
21433;BME280;18592;49.708;10.900;2023-03-21T04:10:24;98739.03;;;12.02;51.14
21433;BME280;18592;49.708;10.900;2023-03-21T04:12:25;98735.47;;;12.02;51.24
21433;BME280;18592;49.708;10.900;2023-03-21T04:14:45;98742.88;;;12.01;51.17
21433;BME280;18592;49.708;10.900;2023-03-21T04:16:53;98742.88;;;12.01;51.16
21433;BME280;18592;49.708;10.900;2023-03-21T04:18:55;98737.41;;;12.01;51.20
21433;BME280;18592;49.708;10.900;2023-03-21T04:20:57;98739.31;;;12.01;51.08
21433;BME280;18592;49.708;10.900;2023-03-21T04:23:02;98736.00;;;11.99;51.30
21433;BME280;18592;49.708;10.900;2023-03-21T04:25:17;98742.28;;;11.99;51.18
21433;BME280;18592;49.708;10.900;2023-03-21T04:27:34;98746.94;;;11.99;51.09
21433;BME280;18592;49.708;10.900;2023-03-21T04:29:59;98747.19;;;11.97;51.22
21433;BME280;18592;49.708;10.900;2023-03-21T04:32:27;98739.25;;;11.96;51.25
21433;BME280;18592;49.708;10.900;2023-03-21T04:34:38;98742.22;;;11.94;51.10
21433;BME280;18592;49.708;10.900;2023-03-21T04:36:41;98742.22;;;11.94;51.14
21433;BME280;18592;49.708;10.900;2023-03-21T04:38:55;98746.06;;;11.93;51.13
21433;BME280;18592;49.708;10.900;2023-03-21T04:41:02;98742.75;;;11.91;51.32
21433;BME280;18592;49.708;10.900;2023-03-21T04:43:08;98748.22;;;11.91;51.08
21433;BME280;18592;49.708;10.900;2023-03-21T04:45:14;98737.28;;;11.91;51.17
21433;BME280;18592;49.708;10.900;2023-03-21T04:47:18;98738.63;;;11.89;51.32
21433;BME280;18592;49.708;10.900;2023-03-21T04:49:21;98744.09;;;11.89;51.11
21433;BME280;18592;49.708;10.900;2023-03-21T04:51:22;98734.22;;;11.88;51.36
21433;BME280;18592;49.708;10.900;2023-03-21T04:53:24;98748.16;;;11.86;51.32
21433;BME280;18592;49.708;10.900;2023-03-21T04:55:26;98736.63;;;11.84;51.41
21433;BME280;18592;49.708;10.900;2023-03-21T04:57:32;98738.56;;;11.84;51.35
21433;BME280;18592;49.708;10.900;2023-03-21T04:59:34;98738.81;;;11.82;51.21
21433;BME280;18592;49.708;10.900;2023-03-21T05:01:36;98742.63;;;11.81;50.98
21433;BME280;18592;49.708;10.900;2023-03-21T05:03:38;98734.69;;;11.80;51.07
21433;BME280;18592;49.708;10.900;2023-03-21T05:05:40;98734.09;;;11.78;51.28
21433;BME280;18592;49.708;10.900;2023-03-21T05:07:42;98734.38;;;11.76;51.20
21433;BME280;18592;49.708;10.900;2023-03-21T05:09:43;98742.81;;;11.75;51.31
21433;BME280;18592;49.708;10.900;2023-03-21T05:11:50;98733.22;;;11.72;51.13
21433;BME280;18592;49.708;10.900;2023-03-21T05:13:52;98730.75;;;11.71;51.22
21433;BME280;18592;49.708;10.900;2023-03-21T05:15:56;98739.19;;;11.69;51.23
21433;BME280;18592;49.708;10.900;2023-03-21T05:17:58;98738.59;;;11.67;51.13
21433;BME280;18592;49.708;10.900;2023-03-21T05:20:09;98742.66;;;11.65;51.13
21433;BME280;18592;49.708;10.900;2023-03-21T05:22:11;98748.38;;;11.63;51.38
21433;BME280;18592;49.708;10.900;2023-03-21T05:24:20;98746.97;;;11.61;51.23
21433;BME280;18592;49.708;10.900;2023-03-21T05:26:23;98746.38;;;11.59;51.31
21433;BME280;18592;49.708;10.900;2023-03-21T05:28:35;98744.97;;;11.56;51.20
21433;BME280;18592;49.708;10.900;2023-03-21T05:30:38;98752.59;;;11.54;51.10
21433;BME280;18592;49.708;10.900;2023-03-21T05:32:40;98746.31;;;11.54;51.32
21433;BME280;18592;49.708;10.900;2023-03-21T05:34:45;98742.19;;;11.51;51.52
21433;BME280;18592;49.708;10.900;2023-03-21T05:36:50;98750.38;;;11.51;51.48
21433;BME280;18592;49.708;10.900;2023-03-21T05:38:52;98751.69;;;11.48;51.24
21433;BME280;18592;49.708;10.900;2023-03-21T05:40:54;98745.66;;;11.46;51.17
21433;BME280;18592;49.708;10.900;2023-03-21T05:42:58;98754.97;;;11.45;51.17
21433;BME280;18592;49.708;10.900;2023-03-21T05:44:59;98757.91;;;11.44;51.45
21433;BME280;18592;49.708;10.900;2023-03-21T05:47:04;98755.44;;;11.42;51.14
21433;BME280;18592;49.708;10.900;2023-03-21T05:49:18;98756.78;;;11.40;50.88
21433;BME280;18592;49.708;10.900;2023-03-21T05:51:27;98764.13;;;11.39;51.42
21433;BME280;18592;49.708;10.900;2023-03-21T05:53:29;98767.13;;;11.38;51.24
21433;BME280;18592;49.708;10.900;2023-03-21T05:55:31;98766.28;;;11.37;51.53
21433;BME280;18592;49.708;10.900;2023-03-21T05:57:35;98762.75;;;11.37;51.34
21433;BME280;18592;49.708;10.900;2023-03-21T05:59:41;98766.53;;;11.36;51.53
21433;BME280;18592;49.708;10.900;2023-03-21T06:01:43;98765.72;;;11.35;51.51
21433;BME280;18592;49.708;10.900;2023-03-21T06:03:48;98768.19;;;11.37;51.36
21433;BME280;18592;49.708;10.900;2023-03-21T06:05:54;98762.75;;;11.37;51.60
21433;BME280;18592;49.708;10.900;2023-03-21T06:07:59;98772.81;;;11.36;51.54
21433;BME280;18592;49.708;10.900;2023-03-21T06:10:05;98771.75;;;11.37;52.13
21433;BME280;18592;49.708;10.900;2023-03-21T06:12:10;98774.16;;;11.34;52.22
21433;BME280;18592;49.708;10.900;2023-03-21T06:14:38;98779.03;;;11.32;52.11
21433;BME280;18592;49.708;10.900;2023-03-21T06:16:50;98765.97;;;11.34;52.32
21433;BME280;18592;49.708;10.900;2023-03-21T06:18:55;98766.22;;;11.32;52.34
21433;BME280;18592;49.708;10.900;2023-03-21T06:21:20;98761.06;;;11.36;52.44
21433;BME280;18592;49.708;10.900;2023-03-21T06:23:22;98767.63;;;11.35;52.75
21433;BME280;18592;49.708;10.900;2023-03-21T06:25:25;98766.53;;;11.36;52.79
21433;BME280;18592;49.708;10.900;2023-03-21T06:27:26;98769.03;;;11.37;52.85
21433;BME280;18592;49.708;10.900;2023-03-21T06:29:29;98772.31;;;11.39;52.79
21433;BME280;18592;49.708;10.900;2023-03-21T06:31:31;98774.63;;;11.47;52.45
21433;BME280;18592;49.708;10.900;2023-03-21T06:33:38;98779.06;;;11.54;52.56
21433;BME280;18592;49.708;10.900;2023-03-21T06:35:40;98768.47;;;11.57;52.32
21433;BME280;18592;49.708;10.900;2023-03-21T06:37:42;98770.72;;;11.60;52.42
21433;BME280;18592;49.708;10.900;2023-03-21T06:39:49;98772.94;;;11.63;52.41
21433;BME280;18592;49.708;10.900;2023-03-21T06:41:53;98770.78;;;11.65;52.55
21433;BME280;18592;49.708;10.900;2023-03-21T06:43:54;98768.16;;;11.70;52.40
21433;BME280;18592;49.708;10.900;2023-03-21T06:45:57;98767.94;;;11.77;52.42
21433;BME280;18592;49.708;10.900;2023-03-21T06:48:00;98757.34;;;11.80;52.38
21433;BME280;18592;49.708;10.900;2023-03-21T06:50:09;98767.50;;;11.85;52.30
21433;BME280;18592;49.708;10.900;2023-03-21T06:52:17;98768.34;;;11.85;52.94
21433;BME280;18592;49.708;10.900;2023-03-21T06:54:19;98762.06;;;11.85;53.16
21433;BME280;18592;49.708;10.900;2023-03-21T06:56:27;98761.28;;;11.89;52.80
21433;BME280;18592;49.708;10.900;2023-03-21T06:58:34;98758.31;;;11.91;52.97
21433;BME280;18592;49.708;10.900;2023-03-21T07:00:37;98760.28;;;11.95;52.85
21433;BME280;18592;49.708;10.900;2023-03-21T07:02:39;98763.91;;;12.01;52.94
21433;BME280;18592;49.708;10.900;2023-03-21T07:04:48;98760.91;;;12.02;52.84
21433;BME280;18592;49.708;10.900;2023-03-21T07:06:57;98763.97;;;12.06;52.80
21433;BME280;18592;49.708;10.900;2023-03-21T07:08:59;98770.81;;;12.08;52.88
21433;BME280;18592;49.708;10.900;2023-03-21T07:11:08;98768.66;;;12.10;53.01
21433;BME280;18592;49.708;10.900;2023-03-21T07:13:13;98766.53;;;12.18;53.08
21433;BME280;18592;49.708;10.900;2023-03-21T07:15:19;98757.56;;;12.22;53.07
21433;BME280;18592;49.708;10.900;2023-03-21T07:17:21;98763.63;;;12.24;53.23
21433;BME280;18592;49.708;10.900;2023-03-21T07:19:22;98765.59;;;12.29;53.22
21433;BME280;18592;49.708;10.900;2023-03-21T07:21:27;98758.78;;;12.31;53.16
21433;BME280;18592;49.708;10.900;2023-03-21T07:23:31;98764.84;;;12.38;53.15
21433;BME280;18592;49.708;10.900;2023-03-21T07:25:33;98769.66;;;12.53;53.07
21433;BME280;18592;49.708;10.900;2023-03-21T07:27:36;98769.91;;;12.51;53.27
21433;BME280;18592;49.708;10.900;2023-03-21T07:29:50;98771.88;;;12.56;53.11
21433;BME280;18592;49.708;10.900;2023-03-21T07:31:52;98771.03;;;12.55;53.31
21433;BME280;18592;49.708;10.900;2023-03-21T07:33:56;98776.56;;;12.60;53.38
21433;BME280;18592;49.708;10.900;2023-03-21T07:35:58;98770.34;;;12.70;53.26
21433;BME280;18592;49.708;10.900;2023-03-21T07:38:00;98768.78;;;12.74;53.44
21433;BME280;18592;49.708;10.900;2023-03-21T07:40:02;98774.53;;;12.77;53.26
21433;BME280;18592;49.708;10.900;2023-03-21T07:42:10;98762.25;;;12.80;53.32
21433;BME280;18592;49.708;10.900;2023-03-21T07:44:13;98769.69;;;12.85;53.48
21433;BME280;18592;49.708;10.900;2023-03-21T07:46:14;98774.09;;;12.91;53.37
21433;BME280;18592;49.708;10.900;2023-03-21T07:48:16;98772.81;;;12.98;53.15
21433;BME280;18592;49.708;10.900;2023-03-21T07:50:19;98771.50;;;13.06;53.15
21433;BME280;18592;49.708;10.900;2023-03-21T07:52:26;98778.19;;;13.15;53.21
21433;BME280;18592;49.708;10.900;2023-03-21T07:54:31;98776.88;;;13.22;53.15
21433;BME280;18592;49.708;10.900;2023-03-21T07:56:32;98778.84;;;13.32;53.24
21433;BME280;18592;49.708;10.900;2023-03-21T07:58:35;98771.78;;;13.41;53.23
21433;BME280;18592;49.708;10.900;2023-03-21T08:00:36;98774.59;;;13.51;53.27
21433;BME280;18592;49.708;10.900;2023-03-21T08:02:38;98776.59;;;13.61;53.13
21433;BME280;18592;49.708;10.900;2023-03-21T08:04:40;98777.72;;;13.70;53.60
21433;BME280;18592;49.708;10.900;2023-03-21T08:06:42;98783.53;;;13.78;53.21
21433;BME280;18592;49.708;10.900;2023-03-21T08:08:43;98777.25;;;13.88;53.10
21433;BME280;18592;49.708;10.900;2023-03-21T08:10:45;98784.69;;;13.97;53.11
21433;BME280;18592;49.708;10.900;2023-03-21T08:12:47;98781.47;;;14.06;53.03
21433;BME280;18592;49.708;10.900;2023-03-21T08:14:49;98779.00;;;14.14;53.08
21433;BME280;18592;49.708;10.900;2023-03-21T08:16:51;98780.97;;;14.24;53.10
21433;BME280;18592;49.708;10.900;2023-03-21T08:18:53;98781.28;;;14.32;53.04
21433;BME280;18592;49.708;10.900;2023-03-21T08:20:58;98778.31;;;14.39;53.12
21433;BME280;18592;49.708;10.900;2023-03-21T08:23:00;98778.59;;;14.47;53.00
21433;BME280;18592;49.708;10.900;2023-03-21T08:25:07;98780.56;;;14.57;52.88
21433;BME280;18592;49.708;10.900;2023-03-21T08:27:10;98766.56;;;14.63;52.80
21433;BME280;18592;49.708;10.900;2023-03-21T08:29:12;98766.56;;;14.74;53.04
21433;BME280;18592;49.708;10.900;2023-03-21T08:31:14;98766.03;;;14.82;53.00
21433;BME280;18592;49.708;10.900;2023-03-21T08:33:15;98762.47;;;14.91;52.81
21433;BME280;18592;49.708;10.900;2023-03-21T08:35:19;98761.66;;;15.01;52.80
21433;BME280;18592;49.708;10.900;2023-03-21T08:37:20;98763.84;;;15.09;52.82
21433;BME280;18592;49.708;10.900;2023-03-21T08:39:22;98760.81;;;15.20;52.86
21433;BME280;18592;49.708;10.900;2023-03-21T08:41:25;98767.66;;;15.28;53.06
21433;BME280;18592;49.708;10.900;2023-03-21T08:43:27;98762.16;;;15.38;53.14
21433;BME280;18592;49.708;10.900;2023-03-21T08:45:29;98758.34;;;15.49;53.19
21433;BME280;18592;49.708;10.900;2023-03-21T08:47:32;98765.72;;;15.64;53.47
21433;BME280;18592;49.708;10.900;2023-03-21T08:49:35;98755.25;;;15.81;53.69
21433;BME280;18592;49.708;10.900;2023-03-21T08:51:36;98748.31;;;15.99;54.08
21433;BME280;18592;49.708;10.900;2023-03-21T08:53:38;98748.75;;;16.21;54.62
21433;BME280;18592;49.708;10.900;2023-03-21T08:55:42;98741.47;;;16.40;54.89
21433;BME280;18592;49.708;10.900;2023-03-21T08:57:44;98744.66;;;16.62;55.16
21433;BME280;18592;49.708;10.900;2023-03-21T08:59:49;98732.94;;;16.85;55.42
21433;BME280;18592;49.708;10.900;2023-03-21T09:01:50;98731.16;;;17.04;54.76
21433;BME280;18592;49.708;10.900;2023-03-21T09:03:52;98728.78;;;17.22;54.59
21433;BME280;18592;49.708;10.900;2023-03-21T09:06:00;98724.78;;;17.38;54.35
21433;BME280;18592;49.708;10.900;2023-03-21T09:08:03;98735.91;;;17.51;53.81
21433;BME280;18592;49.708;10.900;2023-03-21T09:10:12;98730.91;;;17.58;53.38
21433;BME280;18592;49.708;10.900;2023-03-21T09:12:22;98731.63;;;17.69;53.30
21433;BME280;18592;49.708;10.900;2023-03-21T09:14:23;98730.16;;;17.76;52.98
21433;BME280;18592;49.708;10.900;2023-03-21T09:16:29;98731.16;;;17.86;52.63
21433;BME280;18592;49.708;10.900;2023-03-21T09:18:31;98731.31;;;17.94;52.04
21433;BME280;18592;49.708;10.900;2023-03-21T09:20:59;98727.09;;;18.02;51.91
21433;BME280;18592;49.708;10.900;2023-03-21T09:23:01;98735.31;;;18.07;51.96
21433;BME280;18592;49.708;10.900;2023-03-21T09:25:03;98729.97;;;18.15;52.17
21433;BME280;18592;49.708;10.900;2023-03-21T09:27:12;98729.81;;;18.25;51.95
21433;BME280;18592;49.708;10.900;2023-03-21T09:29:14;98727.25;;;18.34;51.86
21433;BME280;18592;49.708;10.900;2023-03-21T09:31:16;98727.88;;;18.45;51.90
21433;BME280;18592;49.708;10.900;2023-03-21T09:33:24;98730.25;;;18.56;52.02
21433;BME280;18592;49.708;10.900;2023-03-21T09:35:31;98727.53;;;18.70;51.69
21433;BME280;18592;49.708;10.900;2023-03-21T09:37:33;98724.03;;;18.83;51.72
21433;BME280;18592;49.708;10.900;2023-03-21T09:39:39;98718.84;;;18.95;51.75
21433;BME280;18592;49.708;10.900;2023-03-21T09:46:26;98714.69;;;19.30;51.20
21433;BME280;18592;49.708;10.900;2023-03-21T09:48:49;98719.66;;;19.46;51.38
21433;BME280;18592;49.708;10.900;2023-03-21T09:50:58;98717.75;;;19.60;51.16
21433;BME280;18592;49.708;10.900;2023-03-21T09:53:04;98713.53;;;19.77;51.48
21433;BME280;18592;49.708;10.900;2023-03-21T09:55:15;98709.63;;;19.91;51.51
21433;BME280;18592;49.708;10.900;2023-03-21T09:57:41;98711.78;;;20.08;50.83
21433;BME280;18592;49.708;10.900;2023-03-21T09:59:45;98708.41;;;20.24;51.08
21433;BME280;18592;49.708;10.900;2023-03-21T10:01:48;98706.44;;;20.39;51.11
21433;BME280;18592;49.708;10.900;2023-03-21T10:03:50;98703.63;;;20.52;51.05
21433;BME280;18592;49.708;10.900;2023-03-21T10:05:55;98700.50;;;20.67;51.08
21433;BME280;18592;49.708;10.900;2023-03-21T10:10:33;98695.34;;;20.97;50.23
21433;BME280;18592;49.708;10.900;2023-03-21T10:12:37;98692.84;;;21.09;49.82
21433;BME280;18592;49.708;10.900;2023-03-21T10:14:47;98693.91;;;21.21;49.77
21433;BME280;18592;49.708;10.900;2023-03-21T10:16:57;98689.41;;;21.34;49.44
21433;BME280;18592;49.708;10.900;2023-03-21T10:19:14;98693.25;;;21.46;49.33
21433;BME280;18592;49.708;10.900;2023-03-21T10:21:20;98687.59;;;21.60;49.17
21433;BME280;18592;49.708;10.900;2023-03-21T10:23:45;98681.63;;;21.75;49.57
21433;BME280;18592;49.708;10.900;2023-03-21T10:25:54;98673.84;;;21.86;48.85
21433;BME280;18592;49.708;10.900;2023-03-21T10:27:58;98674.88;;;21.98;48.57
21433;BME280;18592;49.708;10.900;2023-03-21T10:30:00;98673.75;;;22.08;48.87
21433;BME280;18592;49.708;10.900;2023-03-21T10:32:01;98673.13;;;22.20;48.77
21433;BME280;18592;49.708;10.900;2023-03-21T10:34:12;98670.50;;;22.32;48.49
21433;BME280;18592;49.708;10.900;2023-03-21T10:36:24;98662.69;;;22.42;48.10
21433;BME280;18592;49.708;10.900;2023-03-21T10:38:30;98664.00;;;22.53;48.11
21433;BME280;18592;49.708;10.900;2023-03-21T10:40:33;98657.81;;;22.65;48.12
21433;BME280;18592;49.708;10.900;2023-03-21T10:42:36;98659.94;;;22.77;48.13
21433;BME280;18592;49.708;10.900;2023-03-21T10:44:45;98658.44;;;22.88;47.72
21433;BME280;18592;49.708;10.900;2023-03-21T10:47:05;98648.94;;;22.97;47.56
21433;BME280;18592;49.708;10.900;2023-03-21T10:49:08;98652.69;;;23.10;47.61
21433;BME280;18592;49.708;10.900;2023-03-21T10:51:16;98654.63;;;23.18;47.33
21433;BME280;18592;49.708;10.900;2023-03-21T10:53:26;98643.50;;;23.26;46.68
21433;BME280;18592;49.708;10.900;2023-03-21T10:55:32;98643.16;;;23.36;46.87
21433;BME280;18592;49.708;10.900;2023-03-21T10:57:34;98644.28;;;23.44;47.02
21433;BME280;18592;49.708;10.900;2023-03-21T10:59:42;98643.91;;;23.54;46.79
21433;BME280;18592;49.708;10.900;2023-03-21T11:01:49;98640.28;;;23.62;46.58
21433;BME280;18592;49.708;10.900;2023-03-21T11:04:19;98633.88;;;23.70;46.06
21433;BME280;18592;49.708;10.900;2023-03-21T11:06:32;98633.81;;;23.79;46.29
21433;BME280;18592;49.708;10.900;2023-03-21T11:08:38;98637.03;;;23.89;45.93
21433;BME280;18592;49.708;10.900;2023-03-21T11:11:02;98637.66;;;23.95;45.43
21433;BME280;18592;49.708;10.900;2023-03-21T11:15:51;98626.44;;;24.12;45.30
21433;BME280;18592;49.708;10.900;2023-03-21T11:17:53;98633.47;;;24.18;45.15
21433;BME280;18592;49.708;10.900;2023-03-21T11:20:04;98625.38;;;24.25;44.81
21433;BME280;18592;49.708;10.900;2023-03-21T11:22:06;98630.75;;;24.30;44.69
21433;BME280;18592;49.708;10.900;2023-03-21T11:24:13;98621.72;;;24.33;44.49
21433;BME280;18592;49.708;10.900;2023-03-21T11:26:19;98623.47;;;24.38;43.87
21433;BME280;18592;49.708;10.900;2023-03-21T11:28:38;98620.47;;;24.43;43.67
21433;BME280;18592;49.708;10.900;2023-03-21T11:32:57;98610.34;;;24.59;43.66
21433;BME280;18592;49.708;10.900;2023-03-21T11:35:27;98613.59;;;24.61;43.56
21433;BME280;18592;49.708;10.900;2023-03-21T11:37:37;98613.03;;;24.68;43.92
21433;BME280;18592;49.708;10.900;2023-03-21T11:39:40;98606.44;;;24.72;43.58
21433;BME280;18592;49.708;10.900;2023-03-21T11:41:47;98605.09;;;24.78;43.51
21433;BME280;18592;49.708;10.900;2023-03-21T11:43:55;98610.81;;;24.82;43.11
21433;BME280;18592;49.708;10.900;2023-03-21T11:46:00;98609.44;;;24.88;43.48
21433;BME280;18592;49.708;10.900;2023-03-21T11:48:12;98603.63;;;24.93;43.15
21433;BME280;18592;49.708;10.900;2023-03-21T11:53:10;98602.06;;;25.04;43.03
21433;BME280;18592;49.708;10.900;2023-03-21T11:55:35;98591.13;;;25.11;43.13